sensor_id;sensor_type;location;lat;lon;timestamp;P1;durP1;ratioP1;P2;durP2;ratioP2
4654;SDS011;2340;47.814;9.798;2023-06-22T00:00:55;18.00;;;6.57;;
4654;SDS011;2340;47.814;9.798;2023-06-22T00:03:22;11.67;;;5.20;;
4654;SDS011;2340;47.814;9.798;2023-06-22T00:05:52;15.70;;;6.20;;
4654;SDS011;2340;47.814;9.798;2023-06-22T00:08:18;14.53;;;6.80;;
4654;SDS011;2340;47.814;9.798;2023-06-22T00:10:45;13.83;;;6.43;;
4654;SDS011;2340;47.814;9.798;2023-06-22T00:13:11;16.10;;;6.90;;
4654;SDS011;2340;47.814;9.798;2023-06-22T00:15:38;13.80;;;5.90;;
4654;SDS011;2340;47.814;9.798;2023-06-22T00:18:06;14.37;;;6.07;;
4654;SDS011;2340;47.814;9.798;2023-06-22T00:20:32;15.13;;;6.47;;
4654;SDS011;2340;47.814;9.798;2023-06-22T00:22:59;18.73;;;6.73;;
4654;SDS011;2340;47.814;9.798;2023-06-22T00:25:25;11.10;;;6.40;;
4654;SDS011;2340;47.814;9.798;2023-06-22T00:27:51;13.73;;;6.50;;
4654;SDS011;2340;47.814;9.798;2023-06-22T00:30:17;12.83;;;7.20;;
4654;SDS011;2340;47.814;9.798;2023-06-22T00:32:43;23.23;;;7.87;;
4654;SDS011;2340;47.814;9.798;2023-06-22T00:35:10;15.90;;;6.27;;
4654;SDS011;2340;47.814;9.798;2023-06-22T00:37:37;25.33;;;6.20;;
4654;SDS011;2340;47.814;9.798;2023-06-22T00:40:03;9.93;;;5.97;;
4654;SDS011;2340;47.814;9.798;2023-06-22T00:42:30;9.17;;;5.90;;
4654;SDS011;2340;47.814;9.798;2023-06-22T00:44:55;15.33;;;6.03;;
4654;SDS011;2340;47.814;9.798;2023-06-22T00:47:21;14.20;;;6.47;;
4654;SDS011;2340;47.814;9.798;2023-06-22T00:49:47;11.00;;;6.80;;
4654;SDS011;2340;47.814;9.798;2023-06-22T00:52:16;15.50;;;6.47;;
4654;SDS011;2340;47.814;9.798;2023-06-22T00:54:49;16.60;;;6.50;;
4654;SDS011;2340;47.814;9.798;2023-06-22T00:57:16;16.00;;;6.27;;
4654;SDS011;2340;47.814;9.798;2023-06-22T00:59:43;13.47;;;6.63;;
4654;SDS011;2340;47.814;9.798;2023-06-22T01:02:09;12.57;;;6.53;;
4654;SDS011;2340;47.814;9.798;2023-06-22T01:04:36;9.43;;;5.67;;
4654;SDS011;2340;47.814;9.798;2023-06-22T01:07:09;11.50;;;6.13;;
4654;SDS011;2340;47.814;9.798;2023-06-22T01:12:24;18.97;;;6.83;;
4654;SDS011;2340;47.814;9.798;2023-06-22T01:14:58;20.33;;;8.03;;
4654;SDS011;2340;47.814;9.798;2023-06-22T01:17:30;9.40;;;6.30;;
4654;SDS011;2340;47.814;9.798;2023-06-22T01:19:57;24.40;;;6.73;;
4654;SDS011;2340;47.814;9.798;2023-06-22T01:22:25;17.83;;;6.27;;
4654;SDS011;2340;47.814;9.798;2023-06-22T01:25:08;10.97;;;5.90;;
4654;SDS011;2340;47.814;9.798;2023-06-22T01:30:49;13.37;;;7.20;;
4654;SDS011;2340;47.814;9.798;2023-06-22T01:33:28;15.23;;;6.87;;
4654;SDS011;2340;47.814;9.798;2023-06-22T01:35:55;11.17;;;6.20;;
4654;SDS011;2340;47.814;9.798;2023-06-22T01:38:22;11.70;;;7.10;;
4654;SDS011;2340;47.814;9.798;2023-06-22T01:40:48;17.60;;;6.60;;
4654;SDS011;2340;47.814;9.798;2023-06-22T01:43:14;11.20;;;5.93;;
4654;SDS011;2340;47.814;9.798;2023-06-22T01:45:40;14.70;;;6.40;;
4654;SDS011;2340;47.814;9.798;2023-06-22T01:48:07;17.77;;;7.10;;
4654;SDS011;2340;47.814;9.798;2023-06-22T01:50:33;13.50;;;5.90;;
4654;SDS011;2340;47.814;9.798;2023-06-22T01:52:58;11.90;;;7.40;;
4654;SDS011;2340;47.814;9.798;2023-06-22T01:55:24;15.87;;;6.93;;
4654;SDS011;2340;47.814;9.798;2023-06-22T01:57:49;11.43;;;6.90;;
4654;SDS011;2340;47.814;9.798;2023-06-22T02:00:18;13.50;;;7.20;;
4654;SDS011;2340;47.814;9.798;2023-06-22T02:05:19;17.37;;;6.70;;
4654;SDS011;2340;47.814;9.798;2023-06-22T02:08:28;18.83;;;6.40;;
4654;SDS011;2340;47.814;9.798;2023-06-22T02:10:37;11.93;;;5.80;;
4654;SDS011;2340;47.814;9.798;2023-06-22T02:13:06;19.60;;;6.90;;
4654;SDS011;2340;47.814;9.798;2023-06-22T02:15:33;17.33;;;8.03;;
4654;SDS011;2340;47.814;9.798;2023-06-22T02:18:00;18.47;;;7.00;;
4654;SDS011;2340;47.814;9.798;2023-06-22T02:20:25;14.07;;;7.23;;
4654;SDS011;2340;47.814;9.798;2023-06-22T02:22:51;9.20;;;5.43;;
4654;SDS011;2340;47.814;9.798;2023-06-22T02:25:17;16.40;;;6.63;;
4654;SDS011;2340;47.814;9.798;2023-06-22T02:27:44;17.47;;;8.80;;
4654;SDS011;2340;47.814;9.798;2023-06-22T02:30:10;13.50;;;6.00;;
4654;SDS011;2340;47.814;9.798;2023-06-22T02:32:37;16.07;;;7.13;;
4654;SDS011;2340;47.814;9.798;2023-06-22T02:35:02;18.70;;;7.03;;
4654;SDS011;2340;47.814;9.798;2023-06-22T02:37:32;16.37;;;6.10;;
4654;SDS011;2340;47.814;9.798;2023-06-22T02:39:57;11.00;;;6.80;;
4654;SDS011;2340;47.814;9.798;2023-06-22T02:42:23;13.17;;;7.43;;
4654;SDS011;2340;47.814;9.798;2023-06-22T02:44:49;14.80;;;7.10;;
4654;SDS011;2340;47.814;9.798;2023-06-22T02:47:15;11.00;;;7.00;;
4654;SDS011;2340;47.814;9.798;2023-06-22T02:49:41;17.67;;;7.63;;
4654;SDS011;2340;47.814;9.798;2023-06-22T02:52:07;16.20;;;7.77;;
4654;SDS011;2340;47.814;9.798;2023-06-22T02:54:32;14.33;;;7.30;;
4654;SDS011;2340;47.814;9.798;2023-06-22T02:56:58;16.33;;;7.47;;
4654;SDS011;2340;47.814;9.798;2023-06-22T02:59:27;20.20;;;6.80;;
4654;SDS011;2340;47.814;9.798;2023-06-22T03:01:53;11.20;;;7.80;;
4654;SDS011;2340;47.814;9.798;2023-06-22T03:04:19;10.00;;;6.30;;
4654;SDS011;2340;47.814;9.798;2023-06-22T03:06:45;14.53;;;7.57;;
4654;SDS011;2340;47.814;9.798;2023-06-22T03:09:15;10.20;;;7.50;;
4654;SDS011;2340;47.814;9.798;2023-06-22T03:11:41;18.70;;;7.40;;
4654;SDS011;2340;47.814;9.798;2023-06-22T03:14:07;11.43;;;6.37;;
4654;SDS011;2340;47.814;9.798;2023-06-22T03:16:32;12.07;;;6.60;;
4654;SDS011;2340;47.814;9.798;2023-06-22T03:18:59;15.07;;;7.43;;
4654;SDS011;2340;47.814;9.798;2023-06-22T03:21:27;16.70;;;7.50;;
4654;SDS011;2340;47.814;9.798;2023-06-22T03:23:53;10.03;;;8.13;;
4654;SDS011;2340;47.814;9.798;2023-06-22T03:26:19;19.57;;;7.37;;
4654;SDS011;2340;47.814;9.798;2023-06-22T03:28:45;13.20;;;7.10;;
4654;SDS011;2340;47.814;9.798;2023-06-22T03:31:11;14.13;;;7.47;;
4654;SDS011;2340;47.814;9.798;2023-06-22T03:33:36;13.73;;;7.87;;
4654;SDS011;2340;47.814;9.798;2023-06-22T03:36:02;14.40;;;7.23;;
4654;SDS011;2340;47.814;9.798;2023-06-22T03:38:28;10.03;;;7.17;;
4654;SDS011;2340;47.814;9.798;2023-06-22T03:40:54;13.57;;;7.83;;
4654;SDS011;2340;47.814;9.798;2023-06-22T03:43:19;13.77;;;8.53;;
4654;SDS011;2340;47.814;9.798;2023-06-22T03:45:45;14.23;;;7.50;;
4654;SDS011;2340;47.814;9.798;2023-06-22T03:48:11;20.07;;;8.50;;
4654;SDS011;2340;47.814;9.798;2023-06-22T03:50:37;21.60;;;9.17;;
4654;SDS011;2340;47.814;9.798;2023-06-22T03:53:02;10.80;;;7.83;;
4654;SDS011;2340;47.814;9.798;2023-06-22T03:55:28;33.83;;;8.80;;
4654;SDS011;2340;47.814;9.798;2023-06-22T03:57:54;10.20;;;8.13;;
4654;SDS011;2340;47.814;9.798;2023-06-22T04:00:22;20.30;;;8.97;;
4654;SDS011;2340;47.814;9.798;2023-06-22T04:02:48;20.10;;;8.80;;
4654;SDS011;2340;47.814;9.798;2023-06-22T04:05:14;14.70;;;7.83;;
4654;SDS011;2340;47.814;9.798;2023-06-22T04:07:39;13.90;;;7.90;;
4654;SDS011;2340;47.814;9.798;2023-06-22T04:10:05;26.37;;;7.37;;
4654;SDS011;2340;47.814;9.798;2023-06-22T04:12:31;24.63;;;9.10;;
4654;SDS011;2340;47.814;9.798;2023-06-22T04:14:57;16.13;;;9.47;;
4654;SDS011;2340;47.814;9.798;2023-06-22T04:17:22;15.20;;;8.27;;
4654;SDS011;2340;47.814;9.798;2023-06-22T04:19:50;14.97;;;8.63;;
4654;SDS011;2340;47.814;9.798;2023-06-22T04:22:16;15.77;;;8.00;;
4654;SDS011;2340;47.814;9.798;2023-06-22T04:24:41;9.50;;;7.40;;
4654;SDS011;2340;47.814;9.798;2023-06-22T04:27:07;14.97;;;9.17;;
4654;SDS011;2340;47.814;9.798;2023-06-22T04:29:32;20.57;;;7.30;;
4654;SDS011;2340;47.814;9.798;2023-06-22T04:31:58;11.20;;;7.40;;
4654;SDS011;2340;47.814;9.798;2023-06-22T04:34:28;19.63;;;8.50;;
4654;SDS011;2340;47.814;9.798;2023-06-22T04:36:54;21.37;;;8.47;;
4654;SDS011;2340;47.814;9.798;2023-06-22T04:39:20;22.03;;;9.17;;
4654;SDS011;2340;47.814;9.798;2023-06-22T04:41:46;16.13;;;8.20;;
4654;SDS011;2340;47.814;9.798;2023-06-22T04:44:12;10.20;;;7.87;;
4654;SDS011;2340;47.814;9.798;2023-06-22T04:46:38;22.63;;;8.27;;
4654;SDS011;2340;47.814;9.798;2023-06-22T04:49:07;13.60;;;7.73;;
4654;SDS011;2340;47.814;9.798;2023-06-22T04:51:40;14.33;;;8.80;;
4654;SDS011;2340;47.814;9.798;2023-06-22T04:54:07;20.73;;;9.23;;
4654;SDS011;2340;47.814;9.798;2023-06-22T04:56:34;24.83;;;7.80;;
4654;SDS011;2340;47.814;9.798;2023-06-22T04:59:00;12.87;;;7.50;;
4654;SDS011;2340;47.814;9.798;2023-06-22T05:01:26;16.70;;;8.70;;
4654;SDS011;2340;47.814;9.798;2023-06-22T05:03:52;10.60;;;8.67;;
4654;SDS011;2340;47.814;9.798;2023-06-22T05:06:22;10.03;;;7.50;;
4654;SDS011;2340;47.814;9.798;2023-06-22T05:08:50;15.13;;;8.20;;
4654;SDS011;2340;47.814;9.798;2023-06-22T05:11:24;14.50;;;8.13;;
4654;SDS011;2340;47.814;9.798;2023-06-22T05:13:51;17.77;;;8.83;;
4654;SDS011;2340;47.814;9.798;2023-06-22T05:16:16;19.57;;;8.80;;
4654;SDS011;2340;47.814;9.798;2023-06-22T05:18:42;12.20;;;8.33;;
4654;SDS011;2340;47.814;9.798;2023-06-22T05:21:08;11.37;;;7.73;;
4654;SDS011;2340;47.814;9.798;2023-06-22T05:23:34;21.23;;;8.90;;
4654;SDS011;2340;47.814;9.798;2023-06-22T05:25:59;24.83;;;8.27;;
4654;SDS011;2340;47.814;9.798;2023-06-22T05:28:25;17.43;;;8.20;;
4654;SDS011;2340;47.814;9.798;2023-06-22T05:30:51;16.23;;;8.20;;
4654;SDS011;2340;47.814;9.798;2023-06-22T05:33:16;14.90;;;8.60;;
4654;SDS011;2340;47.814;9.798;2023-06-22T05:35:42;11.60;;;8.30;;
4654;SDS011;2340;47.814;9.798;2023-06-22T05:38:08;23.40;;;8.93;;
4654;SDS011;2340;47.814;9.798;2023-06-22T05:40:33;18.27;;;7.30;;
4654;SDS011;2340;47.814;9.798;2023-06-22T05:42:59;15.50;;;7.90;;
4654;SDS011;2340;47.814;9.798;2023-06-22T05:45:26;10.30;;;7.27;;
4654;SDS011;2340;47.814;9.798;2023-06-22T05:47:52;17.93;;;9.20;;
4654;SDS011;2340;47.814;9.798;2023-06-22T05:50:17;12.17;;;7.10;;
4654;SDS011;2340;47.814;9.798;2023-06-22T05:52:43;16.70;;;8.67;;
4654;SDS011;2340;47.814;9.798;2023-06-22T05:55:09;9.83;;;6.80;;
4654;SDS011;2340;47.814;9.798;2023-06-22T05:57:34;11.80;;;8.60;;
4654;SDS011;2340;47.814;9.798;2023-06-22T06:00:00;19.03;;;7.87;;
4654;SDS011;2340;47.814;9.798;2023-06-22T06:02:26;8.43;;;7.53;;
4654;SDS011;2340;47.814;9.798;2023-06-22T06:04:51;15.33;;;7.77;;
4654;SDS011;2340;47.814;9.798;2023-06-22T06:07:17;17.80;;;8.50;;
4654;SDS011;2340;47.814;9.798;2023-06-22T06:09:43;11.47;;;6.70;;
4654;SDS011;2340;47.814;9.798;2023-06-22T06:12:09;15.20;;;8.03;;
4654;SDS011;2340;47.814;9.798;2023-06-22T06:14:34;22.77;;;9.47;;
4654;SDS011;2340;47.814;9.798;2023-06-22T06:17:00;11.77;;;7.63;;
4654;SDS011;2340;47.814;9.798;2023-06-22T06:19:26;14.53;;;7.77;;
4654;SDS011;2340;47.814;9.798;2023-06-22T06:21:51;13.60;;;8.00;;
4654;SDS011;2340;47.814;9.798;2023-06-22T06:24:17;12.30;;;8.80;;
4654;SDS011;2340;47.814;9.798;2023-06-22T06:26:42;11.60;;;8.07;;
4654;SDS011;2340;47.814;9.798;2023-06-22T06:29:08;19.00;;;8.53;;
4654;SDS011;2340;47.814;9.798;2023-06-22T06:31:33;10.53;;;7.93;;
4654;SDS011;2340;47.814;9.798;2023-06-22T06:34:00;12.40;;;7.30;;
4654;SDS011;2340;47.814;9.798;2023-06-22T06:36:25;11.27;;;7.37;;
4654;SDS011;2340;47.814;9.798;2023-06-22T06:38:51;20.40;;;7.70;;
4654;SDS011;2340;47.814;9.798;2023-06-22T06:41:17;15.03;;;9.17;;
4654;SDS011;2340;47.814;9.798;2023-06-22T06:43:42;16.60;;;8.80;;
4654;SDS011;2340;47.814;9.798;2023-06-22T06:46:08;20.33;;;8.40;;
4654;SDS011;2340;47.814;9.798;2023-06-22T06:48:34;15.43;;;8.47;;
4654;SDS011;2340;47.814;9.798;2023-06-22T06:51:00;18.00;;;8.10;;
4654;SDS011;2340;47.814;9.798;2023-06-22T06:53:26;15.03;;;8.30;;
4654;SDS011;2340;47.814;9.798;2023-06-22T06:55:51;14.30;;;7.43;;
4654;SDS011;2340;47.814;9.798;2023-06-22T06:58:17;17.33;;;8.40;;
4654;SDS011;2340;47.814;9.798;2023-06-22T07:00:43;14.10;;;7.63;;
4654;SDS011;2340;47.814;9.798;2023-06-22T07:03:09;17.40;;;7.37;;
4654;SDS011;2340;47.814;9.798;2023-06-22T07:05:34;14.93;;;9.17;;
4654;SDS011;2340;47.814;9.798;2023-06-22T07:08:00;15.47;;;8.60;;
4654;SDS011;2340;47.814;9.798;2023-06-22T07:10:26;18.67;;;7.83;;
4654;SDS011;2340;47.814;9.798;2023-06-22T07:12:52;26.33;;;7.57;;
4654;SDS011;2340;47.814;9.798;2023-06-22T07:15:18;20.40;;;8.17;;
4654;SDS011;2340;47.814;9.798;2023-06-22T07:17:44;17.20;;;7.40;;
4654;SDS011;2340;47.814;9.798;2023-06-22T07:20:09;22.93;;;8.30;;
4654;SDS011;2340;47.814;9.798;2023-06-22T07:22:40;15.23;;;8.40;;
4654;SDS011;2340;47.814;9.798;2023-06-22T07:25:07;11.80;;;7.27;;
4654;SDS011;2340;47.814;9.798;2023-06-22T07:27:39;15.57;;;8.10;;
4654;SDS011;2340;47.814;9.798;2023-06-22T07:30:10;14.37;;;7.40;;
4654;SDS011;2340;47.814;9.798;2023-06-22T07:32:36;12.90;;;7.80;;
4654;SDS011;2340;47.814;9.798;2023-06-22T07:35:02;20.03;;;8.93;;
4654;SDS011;2340;47.814;9.798;2023-06-22T07:37:29;15.60;;;8.63;;
4654;SDS011;2340;47.814;9.798;2023-06-22T07:39:57;16.37;;;8.00;;
4654;SDS011;2340;47.814;9.798;2023-06-22T07:42:26;20.23;;;7.93;;
4654;SDS011;2340;47.814;9.798;2023-06-22T07:44:52;10.23;;;8.10;;
4654;SDS011;2340;47.814;9.798;2023-06-22T07:47:19;18.33;;;7.90;;
4654;SDS011;2340;47.814;9.798;2023-06-22T07:49:48;17.07;;;6.97;;
4654;SDS011;2340;47.814;9.798;2023-06-22T07:52:13;15.20;;;6.77;;
4654;SDS011;2340;47.814;9.798;2023-06-22T07:54:39;15.40;;;7.67;;
4654;SDS011;2340;47.814;9.798;2023-06-22T07:57:05;13.70;;;7.70;;
4654;SDS011;2340;47.814;9.798;2023-06-22T07:59:30;12.30;;;7.53;;
4654;SDS011;2340;47.814;9.798;2023-06-22T08:01:56;15.53;;;7.33;;
4654;SDS011;2340;47.814;9.798;2023-06-22T08:04:22;22.80;;;6.90;;
4654;SDS011;2340;47.814;9.798;2023-06-22T08:06:47;16.00;;;7.07;;
4654;SDS011;2340;47.814;9.798;2023-06-22T08:09:14;17.90;;;7.50;;
4654;SDS011;2340;47.814;9.798;2023-06-22T08:11:39;18.33;;;7.50;;
4654;SDS011;2340;47.814;9.798;2023-06-22T08:14:05;15.93;;;5.87;;
4654;SDS011;2340;47.814;9.798;2023-06-22T08:16:31;13.70;;;6.90;;
4654;SDS011;2340;47.814;9.798;2023-06-22T08:18:56;19.23;;;7.30;;
4654;SDS011;2340;47.814;9.798;2023-06-22T08:21:22;23.77;;;6.80;;
4654;SDS011;2340;47.814;9.798;2023-06-22T08:23:48;14.93;;;5.90;;
4654;SDS011;2340;47.814;9.798;2023-06-22T08:26:14;25.57;;;6.63;;
4654;SDS011;2340;47.814;9.798;2023-06-22T08:28:40;16.03;;;6.67;;
4654;SDS011;2340;47.814;9.798;2023-06-22T08:31:05;16.10;;;6.60;;
4654;SDS011;2340;47.814;9.798;2023-06-22T08:33:31;21.97;;;6.20;;
4654;SDS011;2340;47.814;9.798;2023-06-22T08:35:57;15.47;;;5.77;;
4654;SDS011;2340;47.814;9.798;2023-06-22T08:38:24;23.27;;;6.40;;
4654;SDS011;2340;47.814;9.798;2023-06-22T08:40:50;22.20;;;6.00;;
4654;SDS011;2340;47.814;9.798;2023-06-22T08:43:15;17.83;;;6.20;;
4654;SDS011;2340;47.814;9.798;2023-06-22T08:45:41;16.50;;;7.47;;
4654;SDS011;2340;47.814;9.798;2023-06-22T08:48:06;19.90;;;5.80;;
4654;SDS011;2340;47.814;9.798;2023-06-22T08:50:32;18.60;;;5.50;;
4654;SDS011;2340;47.814;9.798;2023-06-22T08:52:58;29.00;;;5.67;;
4654;SDS011;2340;47.814;9.798;2023-06-22T08:55:23;15.63;;;5.60;;
4654;SDS011;2340;47.814;9.798;2023-06-22T08:57:49;23.93;;;6.60;;
4654;SDS011;2340;47.814;9.798;2023-06-22T09:00:14;20.00;;;6.30;;
4654;SDS011;2340;47.814;9.798;2023-06-22T09:02:45;12.50;;;5.90;;
4654;SDS011;2340;47.814;9.798;2023-06-22T09:05:12;17.17;;;5.63;;
4654;SDS011;2340;47.814;9.798;2023-06-22T09:07:38;20.02;;;6.60;;
4654;SDS011;2340;47.814;9.798;2023-06-22T09:10:04;18.73;;;7.70;;
4654;SDS011;2340;47.814;9.798;2023-06-22T09:12:30;12.07;;;7.33;;
4654;SDS011;2340;47.814;9.798;2023-06-22T09:14:57;13.35;;;6.72;;
4654;SDS011;2340;47.814;9.798;2023-06-22T09:17:26;12.65;;;7.00;;
4654;SDS011;2340;47.814;9.798;2023-06-22T09:19:52;19.60;;;7.57;;
4654;SDS011;2340;47.814;9.798;2023-06-22T09:22:18;24.80;;;8.00;;
4654;SDS011;2340;47.814;9.798;2023-06-22T09:24:43;13.82;;;7.70;;
4654;SDS011;2340;47.814;9.798;2023-06-22T09:27:09;14.48;;;7.40;;
4654;SDS011;2340;47.814;9.798;2023-06-22T09:29:35;10.48;;;7.00;;
4654;SDS011;2340;47.814;9.798;2023-06-22T09:32:00;24.15;;;8.65;;
4654;SDS011;2340;47.814;9.798;2023-06-22T09:34:26;18.27;;;6.80;;
4654;SDS011;2340;47.814;9.798;2023-06-22T09:36:52;14.15;;;7.22;;
4654;SDS011;2340;47.814;9.798;2023-06-22T09:39:18;12.80;;;7.57;;
4654;SDS011;2340;47.814;9.798;2023-06-22T09:41:44;10.82;;;5.90;;
4654;SDS011;2340;47.814;9.798;2023-06-22T09:44:10;20.95;;;7.97;;
4654;SDS011;2340;47.814;9.798;2023-06-22T09:46:35;13.70;;;7.68;;
4654;SDS011;2340;47.814;9.798;2023-06-22T09:49:01;23.05;;;8.63;;
4654;SDS011;2340;47.814;9.798;2023-06-22T09:51:27;21.25;;;8.68;;
4654;SDS011;2340;47.814;9.798;2023-06-22T09:53:52;11.43;;;7.38;;
4654;SDS011;2340;47.814;9.798;2023-06-22T09:56:21;16.70;;;8.52;;
4654;SDS011;2340;47.814;9.798;2023-06-22T09:58:47;22.85;;;9.07;;
4654;SDS011;2340;47.814;9.798;2023-06-22T10:01:15;15.55;;;8.10;;
4654;SDS011;2340;47.814;9.798;2023-06-22T10:03:41;12.25;;;8.10;;
4654;SDS011;2340;47.814;9.798;2023-06-22T10:06:07;20.10;;;8.27;;
4654;SDS011;2340;47.814;9.798;2023-06-22T10:08:33;24.90;;;8.23;;
4654;SDS011;2340;47.814;9.798;2023-06-22T10:11:02;21.90;;;9.80;;
4654;SDS011;2340;47.814;9.798;2023-06-22T10:13:29;27.52;;;9.98;;
4654;SDS011;2340;47.814;9.798;2023-06-22T10:15:54;16.67;;;6.82;;
4654;SDS011;2340;47.814;9.798;2023-06-22T10:18:21;23.05;;;8.90;;
4654;SDS011;2340;47.814;9.798;2023-06-22T10:20:47;17.13;;;6.93;;
4654;SDS011;2340;47.814;9.798;2023-06-22T10:23:13;17.30;;;7.93;;
4654;SDS011;2340;47.814;9.798;2023-06-22T10:25:39;13.23;;;7.03;;
4654;SDS011;2340;47.814;9.798;2023-06-22T10:28:05;19.63;;;7.28;;
4654;SDS011;2340;47.814;9.798;2023-06-22T10:30:30;17.50;;;7.28;;
4654;SDS011;2340;47.814;9.798;2023-06-22T10:32:56;15.05;;;7.55;;
4654;SDS011;2340;47.814;9.798;2023-06-22T10:35:22;20.30;;;7.78;;
4654;SDS011;2340;47.814;9.798;2023-06-22T10:37:48;15.55;;;5.80;;
4654;SDS011;2340;47.814;9.798;2023-06-22T10:40:14;14.80;;;6.35;;
4654;SDS011;2340;47.814;9.798;2023-06-22T10:42:40;10.45;;;5.90;;
4654;SDS011;2340;47.814;9.798;2023-06-22T10:45:06;15.85;;;6.57;;
4654;SDS011;2340;47.814;9.798;2023-06-22T10:47:33;20.35;;;8.38;;
4654;SDS011;2340;47.814;9.798;2023-06-22T10:49:59;12.95;;;6.53;;
4654;SDS011;2340;47.814;9.798;2023-06-22T10:52:25;9.75;;;5.68;;
4654;SDS011;2340;47.814;9.798;2023-06-22T10:54:50;12.55;;;7.72;;
4654;SDS011;2340;47.814;9.798;2023-06-22T10:57:17;15.75;;;7.07;;
4654;SDS011;2340;47.814;9.798;2023-06-22T10:59:43;18.52;;;7.45;;
4654;SDS011;2340;47.814;9.798;2023-06-22T11:02:09;12.02;;;5.82;;
4654;SDS011;2340;47.814;9.798;2023-06-22T11:04:34;17.27;;;6.57;;
4654;SDS011;2340;47.814;9.798;2023-06-22T11:07:00;16.77;;;6.55;;
4654;SDS011;2340;47.814;9.798;2023-06-22T11:09:28;16.05;;;5.78;;
4654;SDS011;2340;47.814;9.798;2023-06-22T11:11:57;14.65;;;7.93;;
4654;SDS011;2340;47.814;9.798;2023-06-22T11:14:24;11.77;;;6.00;;
4654;SDS011;2340;47.814;9.798;2023-06-22T11:16:50;13.25;;;6.72;;
4654;SDS011;2340;47.814;9.798;2023-06-22T11:19:15;17.88;;;6.15;;
4654;SDS011;2340;47.814;9.798;2023-06-22T11:21:41;16.30;;;6.32;;
4654;SDS011;2340;47.814;9.798;2023-06-22T11:24:07;14.57;;;6.00;;
4654;SDS011;2340;47.814;9.798;2023-06-22T11:26:32;20.75;;;7.18;;
4654;SDS011;2340;47.814;9.798;2023-06-22T11:28:59;17.85;;;6.63;;
4654;SDS011;2340;47.814;9.798;2023-06-22T11:31:24;15.65;;;6.25;;
4654;SDS011;2340;47.814;9.798;2023-06-22T11:33:50;16.02;;;6.50;;
4654;SDS011;2340;47.814;9.798;2023-06-22T11:36:16;13.50;;;5.80;;
4654;SDS011;2340;47.814;9.798;2023-06-22T11:38:42;26.80;;;6.28;;
4654;SDS011;2340;47.814;9.798;2023-06-22T11:41:09;17.58;;;5.65;;
4654;SDS011;2340;47.814;9.798;2023-06-22T11:43:35;21.75;;;5.82;;
4654;SDS011;2340;47.814;9.798;2023-06-22T11:46:05;12.10;;;5.40;;
4654;SDS011;2340;47.814;9.798;2023-06-22T11:48:30;22.80;;;6.15;;
4654;SDS011;2340;47.814;9.798;2023-06-22T11:50:56;28.23;;;5.78;;
4654;SDS011;2340;47.814;9.798;2023-06-22T11:53:23;12.13;;;5.05;;
4654;SDS011;2340;47.814;9.798;2023-06-22T11:55:50;16.45;;;5.13;;
4654;SDS011;2340;47.814;9.798;2023-06-22T11:58:16;16.25;;;5.90;;
4654;SDS011;2340;47.814;9.798;2023-06-22T12:00:42;23.75;;;5.97;;
4654;SDS011;2340;47.814;9.798;2023-06-22T12:03:07;19.67;;;5.15;;
4654;SDS011;2340;47.814;9.798;2023-06-22T12:05:34;19.70;;;5.82;;
4654;SDS011;2340;47.814;9.798;2023-06-22T12:08:00;16.40;;;5.00;;
4654;SDS011;2340;47.814;9.798;2023-06-22T12:10:26;14.65;;;5.28;;
4654;SDS011;2340;47.814;9.798;2023-06-22T12:12:53;17.73;;;5.53;;
4654;SDS011;2340;47.814;9.798;2023-06-22T12:15:19;8.40;;;4.72;;
4654;SDS011;2340;47.814;9.798;2023-06-22T12:17:44;11.32;;;4.60;;
4654;SDS011;2340;47.814;9.798;2023-06-22T12:20:10;16.50;;;5.28;;
4654;SDS011;2340;47.814;9.798;2023-06-22T12:22:36;13.65;;;5.30;;
4654;SDS011;2340;47.814;9.798;2023-06-22T12:25:04;23.10;;;5.47;;
4654;SDS011;2340;47.814;9.798;2023-06-22T12:27:31;19.30;;;5.03;;
4654;SDS011;2340;47.814;9.798;2023-06-22T12:29:56;10.35;;;5.13;;
4654;SDS011;2340;47.814;9.798;2023-06-22T12:32:22;19.75;;;6.03;;
4654;SDS011;2340;47.814;9.798;2023-06-22T12:34:47;13.88;;;4.80;;
4654;SDS011;2340;47.814;9.798;2023-06-22T12:37:13;22.67;;;5.20;;
4654;SDS011;2340;47.814;9.798;2023-06-22T12:39:41;14.68;;;5.82;;
4654;SDS011;2340;47.814;9.798;2023-06-22T12:42:07;14.10;;;5.07;;
4654;SDS011;2340;47.814;9.798;2023-06-22T12:44:43;16.83;;;5.88;;
4654;SDS011;2340;47.814;9.798;2023-06-22T12:47:08;29.85;;;6.45;;
4654;SDS011;2340;47.814;9.798;2023-06-22T12:49:37;23.13;;;6.13;;
4654;SDS011;2340;47.814;9.798;2023-06-22T12:52:03;19.60;;;7.05;;
4654;SDS011;2340;47.814;9.798;2023-06-22T12:54:33;23.60;;;5.60;;
4654;SDS011;2340;47.814;9.798;2023-06-22T12:56:59;29.15;;;5.60;;
4654;SDS011;2340;47.814;9.798;2023-06-22T12:59:25;19.70;;;6.22;;
4654;SDS011;2340;47.814;9.798;2023-06-22T13:01:50;20.55;;;5.53;;
4654;SDS011;2340;47.814;9.798;2023-06-22T13:04:16;21.50;;;5.68;;
4654;SDS011;2340;47.814;9.798;2023-06-22T13:06:43;15.25;;;5.43;;
4654;SDS011;2340;47.814;9.798;2023-06-22T13:09:12;18.60;;;4.78;;
4654;SDS011;2340;47.814;9.798;2023-06-22T13:11:39;15.48;;;5.85;;
4654;SDS011;2340;47.814;9.798;2023-06-22T13:14:04;13.68;;;5.93;;
4654;SDS011;2340;47.814;9.798;2023-06-22T13:16:30;19.67;;;5.32;;
4654;SDS011;2340;47.814;9.798;2023-06-22T13:18:56;23.45;;;4.93;;
4654;SDS011;2340;47.814;9.798;2023-06-22T13:21:21;18.67;;;6.47;;
4654;SDS011;2340;47.814;9.798;2023-06-22T13:23:47;13.10;;;5.40;;
4654;SDS011;2340;47.814;9.798;2023-06-22T13:26:12;10.90;;;5.53;;
4654;SDS011;2340;47.814;9.798;2023-06-22T13:28:38;18.05;;;6.03;;
4654;SDS011;2340;47.814;9.798;2023-06-22T13:31:04;21.75;;;5.70;;
4654;SDS011;2340;47.814;9.798;2023-06-22T13:33:29;20.73;;;5.72;;
4654;SDS011;2340;47.814;9.798;2023-06-22T13:35:55;16.17;;;6.28;;
4654;SDS011;2340;47.814;9.798;2023-06-22T13:38:20;8.07;;;5.25;;
4654;SDS011;2340;47.814;9.798;2023-06-22T13:40:47;12.30;;;5.55;;
4654;SDS011;2340;47.814;9.798;2023-06-22T13:43:13;22.60;;;5.93;;
4654;SDS011;2340;47.814;9.798;2023-06-22T13:45:39;16.05;;;5.90;;
4654;SDS011;2340;47.814;9.798;2023-06-22T13:48:04;16.95;;;6.05;;
4654;SDS011;2340;47.814;9.798;2023-06-22T13:50:37;12.80;;;6.80;;
4654;SDS011;2340;47.814;9.798;2023-06-22T13:53:03;16.00;;;5.53;;
4654;SDS011;2340;47.814;9.798;2023-06-22T13:55:28;26.52;;;7.45;;
4654;SDS011;2340;47.814;9.798;2023-06-22T13:57:55;12.10;;;5.95;;
4654;SDS011;2340;47.814;9.798;2023-06-22T14:00:21;20.77;;;6.45;;
4654;SDS011;2340;47.814;9.798;2023-06-22T14:02:47;13.13;;;5.93;;
4654;SDS011;2340;47.814;9.798;2023-06-22T14:05:12;18.70;;;5.80;;
4654;SDS011;2340;47.814;9.798;2023-06-22T14:07:38;10.50;;;5.13;;
4654;SDS011;2340;47.814;9.798;2023-06-22T14:10:04;18.35;;;6.35;;
4654;SDS011;2340;47.814;9.798;2023-06-22T14:12:30;21.58;;;6.03;;
4654;SDS011;2340;47.814;9.798;2023-06-22T14:14:55;22.05;;;7.03;;
4654;SDS011;2340;47.814;9.798;2023-06-22T14:17:22;16.33;;;6.13;;
4654;SDS011;2340;47.814;9.798;2023-06-22T14:19:50;20.58;;;6.97;;
4654;SDS011;2340;47.814;9.798;2023-06-22T14:22:20;17.23;;;5.65;;
4654;SDS011;2340;47.814;9.798;2023-06-22T14:24:47;26.48;;;6.30;;
4654;SDS011;2340;47.814;9.798;2023-06-22T14:27:13;16.83;;;7.20;;
4654;SDS011;2340;47.814;9.798;2023-06-22T14:29:38;12.15;;;5.97;;
4654;SDS011;2340;47.814;9.798;2023-06-22T14:32:04;15.45;;;6.30;;
4654;SDS011;2340;47.814;9.798;2023-06-22T14:34:31;16.98;;;6.55;;
4654;SDS011;2340;47.814;9.798;2023-06-22T14:36:57;14.70;;;5.05;;
4654;SDS011;2340;47.814;9.798;2023-06-22T14:39:22;14.70;;;6.05;;
4654;SDS011;2340;47.814;9.798;2023-06-22T14:41:48;14.27;;;6.15;;
4654;SDS011;2340;47.814;9.798;2023-06-22T14:44:14;19.20;;;6.47;;
4654;SDS011;2340;47.814;9.798;2023-06-22T14:46:40;20.48;;;5.90;;
4654;SDS011;2340;47.814;9.798;2023-06-22T14:49:06;25.33;;;6.20;;
4654;SDS011;2340;47.814;9.798;2023-06-22T14:51:31;19.73;;;6.47;;
4654;SDS011;2340;47.814;9.798;2023-06-22T14:53:57;25.60;;;6.20;;
4654;SDS011;2340;47.814;9.798;2023-06-22T14:56:22;27.10;;;6.53;;
4654;SDS011;2340;47.814;9.798;2023-06-22T14:58:48;23.40;;;5.70;;
4654;SDS011;2340;47.814;9.798;2023-06-22T15:01:15;14.82;;;5.70;;
4654;SDS011;2340;47.814;9.798;2023-06-22T15:03:42;19.30;;;6.10;;
4654;SDS011;2340;47.814;9.798;2023-06-22T15:06:08;13.75;;;6.43;;